Time;durP1;ratioP1;P1;durP2;ratioP2;P2;SDS_P1;SDS_P2;PMS_P1;PMS_P2;Temp;Humidity;BMP_temperature;BMP_pressure;BME280_temperature;BME280_humidity;BME280_pressure;Samples;Min_cycle;Max_cycle;Signal;HPM_P1;HPM_P2
2024/02/10 00:01:48;;;;;;;;;;;;;;;;;;5035305;28;19913;-90
2024/02/10 00:04:14;;;;;;;;;;;;;;;;;;5008340;28;19931;-90
2024/02/10 00:06:39;;;;;;;;;;;;;;;;;;5032349;28;19923;-89
2024/02/10 00:09:06;;;;;;;;;;;;;;;;;;5027947;28;19909;-89
2024/02/10 00:11:31;;;;;;;;;;;;;;;;;;5024520;28;19913;-89
2024/02/10 00:14:02;;;;;;;;;;;;;;;;;;5025270;28;19919;-91
2024/02/10 00:16:28;;;;;;;;;;;;;;;;;;5026715;28;20246;-89
2024/02/10 00:18:53;;;;;;;;;;;;;;;;;;5029603;28;19917;-88
2024/02/10 00:21:20;;;;;;;;;;;;;;;;;;5009502;28;19932;-91
2024/02/10 00:23:47;;;;;;;;;;;;;;;;;;5027586;28;19947;-90
2024/02/10 00:26:12;;;;;;;;;;;;;;;;;;5027190;28;19924;-90
2024/02/10 00:28:38;;;;;;;;;;;;;;;;;;5029707;28;19916;-89
2024/02/10 00:31:03;;;;;;;;;;;;;;;;;;5038102;28;20274;-89
2024/02/10 00:33:29;;;;;;;;;;;;;;;;;;5031083;28;19917;-89
2024/02/10 00:35:54;;;;;;;;;;;;;;;;;;5028066;28;19948;-88
2024/02/10 00:38:21;;;;;;;;;;;;;;;;;;5027145;28;20015;-90
2024/02/10 00:40:46;;;;;;;;;;;;;;;;;;5024446;28;19955;-89
2024/02/10 00:43:12;;;;;;;;;;;;;;;;;;5026663;28;19913;-90
2024/02/10 00:45:37;;;;;;;;;;;;;;;;;;5026254;28;20313;-82
2024/02/10 00:48:02;;;;;;;;;;;;;;;;;;5027808;28;20323;-83
2024/02/10 00:50:29;;;;;;;;;;;;;;;;;;5025676;28;19976;-83
2024/02/10 00:52:55;;;;;;;;;;;;;;;;;;5005000;28;19920;-83
2024/02/10 00:55:30;;;;;;;;;;;;;;;;;;5027263;28;19992;-83
2024/02/10 00:57:55;;;;;;;;;;;;;;;;;;5026962;28;19920;-83
2024/02/10 01:00:21;;;;;;;;;;;;;;;;;;5052593;28;19905;-84
2024/02/10 01:02:46;;;;;;;;;;;;;;;;;;5048089;28;19908;-84
2024/02/10 01:05:12;;;;;;;;;;;;;;;;;;5052318;28;20392;-84
2024/02/10 01:07:37;;;;;;;;;;;;;;;;;;5056094;28;19913;-84
2024/02/10 01:10:02;;;;;;;;;;;;;;;;;;5056806;28;19908;-85
2024/02/10 01:12:27;;;;;;;;;;;;;;;;;;5040500;28;19921;-84
2024/02/10 01:14:55;;;;;;;;;;;;;;;;;;5048003;28;19909;-83
2024/02/10 01:17:20;;;;;;;;;;;;;;;;;;5036152;28;19909;-82
2024/02/10 01:19:51;;;;;;;;;;;;;;;;;;5031129;28;19991;-82
2024/02/10 01:22:17;;;;;;;;;;;;;;;;;;5033401;28;19912;-82
2024/02/10 01:24:45;;;;;;;;;;;;;;;;;;5013230;28;20019;-83
2024/02/10 01:27:10;;;;;;;;;;;;;;;;;;5009571;28;19914;-83
2024/02/10 01:29:35;;;;;;;;;;;;;;;;;;5014651;28;20047;-83
2024/02/10 01:32:00;;;;;;;;;;;;;;;;;;5015057;28;19909;-83
2024/02/10 01:34:27;;;;;;;;;;;;;;;;;;5015555;28;19913;-83
2024/02/10 01:36:52;;;;;;;;;;;;;;;;;;5013905;28;20277;-83
2024/02/10 01:39:17;;;;;;;;;;;;;;;;;;5005931;28;20367;-83
2024/02/10 01:41:42;;;;;;;;;;;;;;;;;;5009904;28;20559;-83
2024/02/10 01:44:07;;;;;;;;;;;;;;;;;;5013140;28;19909;-82
2024/02/10 01:46:32;;;;;;;;;;;;;;;;;;4991871;28;19972;-82
2024/02/10 01:48:59;;;;;;;;;;;;;;;;;;5003302;28;20332;-84
2024/02/10 01:51:24;;;;;;;;;;;;;;;;;;5004796;28;19910;-84
2024/02/10 01:53:49;;;;;;;;;;;;;;;;;;5011056;28;19936;-85
2024/02/10 01:56:17;;;;;;;;;;;;;;;;;;5014998;28;20012;-87
2024/02/10 01:58:42;;;;;;;;;;;;;;;;;;5013779;28;19913;-88
2024/02/10 02:01:07;;;;;;;;;;;;;;;;;;5013499;28;19940;-88
2024/02/10 02:03:32;;;;;;;;;;;;;;;;;;5000126;28;19974;-87
2024/02/10 02:05:57;;;;;;;;;;;;;;;;;;5012047;28;20384;-87
2024/02/10 02:08:23;;;;;;;;;;;;;;;;;;5015121;28;20369;-87
2024/02/10 02:10:48;;;;;;;;;;;;;;;;;;5011910;28;19909;-87
2024/02/10 02:13:21;;;;;;;;;;;;;;;;;;4996635;28;19909;-87
2024/02/10 02:15:46;;;;;;;;;;;;;;;;;;5016128;28;19916;-87
2024/02/10 02:18:14;;;;;;;;;;;;;;;;;;4994142;28;19909;-88
2024/02/10 02:20:39;;;;;;;;;;;;;;;;;;5011679;28;20372;-88
2024/02/10 02:23:05;;;;;;;;;;;;;;;;;;5022713;28;19923;-88
2024/02/10 02:25:30;;;;;;;;;;;;;;;;;;5030742;28;19956;-88
2024/02/10 02:27:57;;;;;;;;;;;;;;;;;;5033710;28;19909;-88
2024/02/10 02:30:23;;;;;;;;;;;;;;;;;;5033481;28;20011;-88
2024/02/10 02:32:49;;;;;;;;;;;;;;;;;;5032414;28;19999;-87
2024/02/10 02:35:14;;;;;;;;;;;;;;;;;;5014980;28;20237;-88
2024/02/10 02:37:42;;;;;;;;;;;;;;;;;;5032013;28;20348;-88
2024/02/10 02:40:07;;;;;;;;;;;;;;;;;;5033561;28;19916;-87
2024/02/10 02:42:33;;;;;;;;;;;;;;;;;;5014459;28;19908;-86
2024/02/10 02:44:58;;;;;;;;;;;;;;;;;;5033262;28;19924;-86
2024/02/10 02:47:25;;;;;;;;;;;;;;;;;;5032725;28;21235;-87
2024/02/10 02:49:50;;;;;;;;;;;;;;;;;;5032469;28;19963;-87
2024/02/10 02:52:15;;;;;;;;;;;;;;;;;;5030596;28;19921;-88
2024/02/10 02:54:42;;;;;;;;;;;;;;;;;;5013715;28;19948;-88
2024/02/10 02:57:07;;;;;;;;;;;;;;;;;;5032454;28;20771;-89
2024/02/10 02:59:33;;;;;;;;;;;;;;;;;;5031779;28;20369;-89
2024/02/10 03:02:02;;;;;;;;;;;;;;;;;;5033294;28;20266;-89
2024/02/10 03:04:27;;;;;;;;;;;;;;;;;;5031820;28;19909;-89
2024/02/10 03:06:54;;;;;;;;;;;;;;;;;;5027281;28;19912;-85
2024/02/10 03:09:19;;;;;;;;;;;;;;;;;;5029489;28;19915;-85
2024/02/10 03:11:45;;;;;;;;;;;;;;;;;;5034842;28;19909;-85
2024/02/10 03:14:10;;;;;;;;;;;;;;;;;;5035259;28;19916;-85
2024/02/10 03:16:35;;;;;;;;;;;;;;;;;;5031698;28;20362;-86
2024/02/10 03:19:01;;;;;;;;;;;;;;;;;;5014862;28;19983;-85
2024/02/10 03:21:27;;;;;;;;;;;;;;;;;;5031670;28;19988;-84
2024/02/10 03:23:54;;;;;;;;;;;;;;;;;;5030123;28;20003;-85
2024/02/10 03:26:19;;;;;;;;;;;;;;;;;;5020018;28;19924;-84
2024/02/10 03:28:46;;;;;;;;;;;;;;;;;;5024936;28;19928;-84
2024/02/10 03:31:11;;;;;;;;;;;;;;;;;;5030983;28;19909;-83
2024/02/10 03:33:36;;;;;;;;;;;;;;;;;;5025041;28;19913;-83
2024/02/10 03:36:02;;;;;;;;;;;;;;;;;;5031480;28;20004;-83
2024/02/10 03:38:28;;;;;;;;;;;;;;;;;;5026352;28;20347;-83
2024/02/10 03:40:53;;;;;;;;;;;;;;;;;;5026139;28;19909;-83
2024/02/10 03:43:22;;;;;;;;;;;;;;;;;;5029921;28;19908;-83
2024/02/10 03:45:47;;;;;;;;;;;;;;;;;;5031602;28;20370;-83
2024/02/10 03:48:12;;;;;;;;;;;;;;;;;;5011832;28;20000;-82
2024/02/10 03:50:38;;;;;;;;;;;;;;;;;;5033748;28;19909;-83
2024/02/10 03:53:03;;;;;;;;;;;;;;;;;;5031655;28;20300;-82
2024/02/10 03:55:29;;;;;;;;;;;;;;;;;;5031073;28;20385;-83
2024/02/10 03:57:56;;;;;;;;;;;;;;;;;;5030041;28;19952;-83
2024/02/10 04:00:25;;;;;;;;;;;;;;;;;;5013495;28;20431;-83
2024/02/10 04:02:50;;;;;;;;;;;;;;;;;;5029700;28;20266;-83
2024/02/10 04:05:16;;;;;;;;;;;;;;;;;;5012765;28;20416;-83
2024/02/10 04:07:41;;;;;;;;;;;;;;;;;;5031752;28;19999;-82
2024/02/10 04:10:08;;;;;;;;;;;;;;;;;;5030807;28;19916;-83
2024/02/10 04:12:33;;;;;;;;;;;;;;;;;;5034831;28;20344;-82
2024/02/10 04:15:00;;;;;;;;;;;;;;;;;;5032527;28;19957;-91
2024/02/10 04:17:25;;;;;;;;;;;;;;;;;;5029742;28;19909;-90
2024/02/10 04:19:55;;;;;;;;;;;;;;;;;;5032752;28;19985;-91
2024/02/10 04:22:23;;;;;;;;;;;;;;;;;;5031724;28;19909;-89
2024/02/10 04:24:48;;;;;;;;;;;;;;;;;;5033155;28;19913;-91
2024/02/10 04:27:15;;;;;;;;;;;;;;;;;;5028813;28;19916;-89
2024/02/10 04:29:40;;;;;;;;;;;;;;;;;;5030757;28;20372;-89
2024/02/10 04:32:07;;;;;;;;;;;;;;;;;;5026140;28;19909;-89
2024/02/10 04:34:32;;;;;;;;;;;;;;;;;;5029823;28;19967;-91
2024/02/10 04:36:58;;;;;;;;;;;;;;;;;;5027654;28;19952;-92
2024/02/10 04:39:24;;;;;;;;;;;;;;;;;;5034666;28;21555;-91
2024/02/10 04:41:49;;;;;;;;;;;;;;;;;;5033694;28;19962;-88
2024/02/10 04:44:14;;;;;;;;;;;;;;;;;;5028785;28;20236;-89
2024/02/10 04:46:39;;;;;;;;;;;;;;;;;;5032861;28;19960;-89
2024/02/10 04:49:04;;;;;;;;;;;;;;;;;;5012441;28;20381;-87
2024/02/10 04:51:31;;;;;;;;;;;;;;;;;;5029033;28;19912;-90
2024/02/10 04:53:56;;;;;;;;;;;;;;;;;;5026160;28;19909;-90
2024/02/10 04:56:27;;;;;;;;;;;;;;;;;;5028704;28;19917;-90
2024/02/10 04:58:53;;;;;;;;;;;;;;;;;;5028432;28;20332;-89
2024/02/10 05:01:19;;;;;;;;;;;;;;;;;;5030966;28;20409;-89
2024/02/10 05:03:44;;;;;;;;;;;;;;;;;;5026594;28;19909;-89
2024/02/10 05:06:10;;;;;;;;;;;;;;;;;;5027124;28;19913;-89
2024/02/10 05:08:39;;;;;;;;;;;;;;;;;;5040701;28;19909;-86
2024/02/10 05:11:04;;;;;;;;;;;;;;;;;;5027307;28;20007;-89
2024/02/10 05:13:30;;;;;;;;;;;;;;;;;;5031619;28;19987;-86
2024/02/10 05:15:55;;;;;;;;;;;;;;;;;;5030420;28;20393;-88
2024/02/10 05:18:20;;;;;;;;;;;;;;;;;;5028286;28;19984;-89
2024/02/10 05:20:45;;;;;;;;;;;;;;;;;;5024323;28;20276;-89
2024/02/10 05:23:11;;;;;;;;;;;;;;;;;;5024576;28;19932;-89
2024/02/10 05:25:36;;;;;;;;;;;;;;;;;;5029862;28;19952;-82
2024/02/10 05:28:02;;;;;;;;;;;;;;;;;;5028229;28;19960;-82
2024/02/10 05:30:27;;;;;;;;;;;;;;;;;;5027928;28;19963;-82
2024/02/10 05:32:52;;;;;;;;;;;;;;;;;;5024596;28;19913;-82
2024/02/10 05:35:20;;;;;;;;;;;;;;;;;;5027897;28;19917;-82
2024/02/10 05:37:46;;;;;;;;;;;;;;;;;;5028990;28;19909;-82
2024/02/10 05:40:11;;;;;;;;;;;;;;;;;;5030472;28;19911;-82
2024/02/10 05:42:36;;;;;;;;;;;;;;;;;;5028978;28;20325;-82
2024/02/10 05:45:05;;;;;;;;;;;;;;;;;;5026683;28;19917;-82
2024/02/10 05:47:34;;;;;;;;;;;;;;;;;;5026899;28;20337;-82
2024/02/10 05:50:00;;;;;;;;;;;;;;;;;;5025401;28;19999;-82
2024/02/10 05:52:25;;;;;;;;;;;;;;;;;;5029169;28;19980;-82
2024/02/10 05:54:50;;;;;;;;;;;;;;;;;;5022212;28;19985;-83
2024/02/10 05:57:18;;;;;;;;;;;;;;;;;;5023757;28;19905;-83
2024/02/10 05:59:43;;;;;;;;;;;;;;;;;;5029653;28;19913;-82
2024/02/10 06:02:08;;;;;;;;;;;;;;;;;;5023271;28;19920;-82
2024/02/10 06:04:33;;;;;;;;;;;;;;;;;;5027513;28;19916;-82
2024/02/10 06:06:58;;;;;;;;;;;;;;;;;;5029571;28;19982;-82
2024/02/10 06:09:23;;;;;;;;;;;;;;;;;;5022733;28;19917;-82
2024/02/10 06:11:49;;;;;;;;;;;;;;;;;;5029014;28;19909;-82
2024/02/10 06:14:14;;;;;;;;;;;;;;;;;;5007453;28;19909;-82
2024/02/10 06:16:40;;;;;;;;;;;;;;;;;;5028431;28;19944;-82
2024/02/10 06:19:05;;;;;;;;;;;;;;;;;;5028214;28;19921;-82
2024/02/10 06:21:33;;;;;;;;;;;;;;;;;;5028241;28;19909;-82
2024/02/10 06:24:00;;;;;;;;;;;;;;;;;;5008350;28;19921;-82
2024/02/10 06:26:25;;;;;;;;;;;;;;;;;;5000706;28;19925;-83
2024/02/10 06:28:50;;;;;;;;;;;;;;;;;;5009403;28;19916;-82
2024/02/10 06:31:18;;;;;;;;;;;;;;;;;;5007711;28;19916;-82
2024/02/10 06:33:45;;;;;;;;;;;;;;;;;;4999017;28;19933;-82
2024/02/10 06:36:12;;;;;;;;;;;;;;;;;;5006156;28;19913;-82
2024/02/10 06:38:37;;;;;;;;;;;;;;;;;;5008951;28;19945;-82
2024/02/10 06:41:02;;;;;;;;;;;;;;;;;;5004959;28;19953;-82
2024/02/10 06:43:27;;;;;;;;;;;;;;;;;;5003435;28;19920;-82
2024/02/10 06:45:52;;;;;;;;;;;;;;;;;;5006833;28;20004;-82
2024/02/10 06:48:19;;;;;;;;;;;;;;;;;;5008494;28;19917;-82
2024/02/10 06:50:44;;;;;;;;;;;;;;;;;;5011769;28;20032;-82
2024/02/10 06:53:09;;;;;;;;;;;;;;;;;;4993434;28;19982;-82
2024/02/10 06:55:36;;;;;;;;;;;;;;;;;;5014441;28;20241;-82
2024/02/10 06:58:02;;;;;;;;;;;;;;;;;;5009800;28;19955;-82
2024/02/10 07:00:27;;;;;;;;;;;;;;;;;;5010662;28;20000;-82
2024/02/10 07:02:56;;;;;;;;;;;;;;;;;;5010440;28;19955;-82
2024/02/10 07:05:22;;;;;;;;;;;;;;;;;;5008233;28;20012;-83
2024/02/10 07:07:48;;;;;;;;;;;;;;;;;;5001995;28;20421;-82
2024/02/10 07:10:13;;;;;;;;;;;;;;;;;;5010455;28;20036;-83
2024/02/10 07:12:39;;;;;;;;;;;;;;;;;;5010446;28;19944;-83
2024/02/10 07:15:04;;;;;;;;;;;;;;;;;;5011908;28;19909;-82
2024/02/10 07:17:29;;;;;;;;;;;;;;;;;;5003558;28;19964;-82
2024/02/10 07:19:54;;;;;;;;;;;;;;;;;;5004620;28;19939;-83
2024/02/10 07:22:19;;;;;;;;;;;;;;;;;;5012356;28;19921;-83
2024/02/10 07:24:46;;;;;;;;;;;;;;;;;;5027545;28;19909;-83
2024/02/10 07:27:17;;;;;;;;;;;;;;;;;;5026211;28;20352;-84
2024/02/10 07:29:44;;;;;;;;;;;;;;;;;;5035149;28;20039;-81
2024/02/10 07:32:10;;;;;;;;;;;;;;;;;;5032928;28;19916;-81
2024/02/10 07:34:35;;;;;;;;;;;;;;;;;;5024726;28;19913;-81
2024/02/10 07:37:00;;;;;;;;;;;;;;;;;;5030068;28;19909;-83
2024/02/10 07:39:25;;;;;;;;;;;;;;;;;;5024771;28;19917;-82
2024/02/10 07:41:52;;;;;;;;;;;;;;;;;;5007972;28;19909;-82
2024/02/10 07:44:18;;;;;;;;;;;;;;;;;;5031516;28;20381;-83
2024/02/10 07:46:43;;;;;;;;;;;;;;;;;;5018286;28;19920;-91
2024/02/10 07:49:08;;;;;;;;;;;;;;;;;;5029676;28;20019;-89
2024/02/10 07:51:33;;;;;;;;;;;;;;;;;;5032817;28;19916;-88
2024/02/10 07:53:59;;;;;;;;;;;;;;;;;;5030261;28;19913;-89
2024/02/10 07:56:28;;;;;;;;;;;;;;;;;;5031988;28;19979;-88
2024/02/10 07:58:56;;;;;;;;;;;;;;;;;;5032296;28;19913;-89
2024/02/10 08:01:21;;;;;;;;;;;;;;;;;;5013178;28;19913;-89
2024/02/10 08:03:46;;;;;;;;;;;;;;;;;;5032878;28;19932;-89
2024/02/10 08:06:13;;;;;;;;;;;;;;;;;;5037057;28;19913;-88
2024/02/10 08:08:38;;;;;;;;;;;;;;;;;;5036374;28;19962;-89
2024/02/10 08:11:03;;;;;;;;;;;;;;;;;;5038136;28;20055;-90
2024/02/10 08:13:29;;;;;;;;;;;;;;;;;;5039454;28;19968;-88
2024/02/10 08:15:54;;;;;;;;;;;;;;;;;;5038798;28;19920;-90
2024/02/10 08:18:19;;;;;;;;;;;;;;;;;;5026973;28;19916;-91
2024/02/10 08:20:45;;;;;;;;;;;;;;;;;;5032184;28;19909;-88
2024/02/10 08:23:12;;;;;;;;;;;;;;;;;;5030334;28;20012;-86
2024/02/10 08:25:38;;;;;;;;;;;;;;;;;;5028134;28;20473;-88
2024/02/10 08:28:07;;;;;;;;;;;;;;;;;;5033091;28;20328;-89
2024/02/10 08:30:32;;;;;;;;;;;;;;;;;;5034677;28;19978;-89
2024/02/10 08:32:58;;;;;;;;;;;;;;;;;;5035238;28;19909;-88
2024/02/10 08:35:27;;;;;;;;;;;;;;;;;;5037052;28;20657;-89
2024/02/10 08:37:52;;;;;;;;;;;;;;;;;;5030440;28;19913;-89
2024/02/10 08:40:17;;;;;;;;;;;;;;;;;;5041403;28;19963;-90
2024/02/10 08:42:42;;;;;;;;;;;;;;;;;;5039355;28;19914;-91
2024/02/10 08:45:09;;;;;;;;;;;;;;;;;;5038840;28;19916;-92
2024/02/10 08:47:34;;;;;;;;;;;;;;;;;;5024210;28;19917;-90
2024/02/10 08:49:59;;;;;;;;;;;;;;;;;;5027952;28;19935;-89
2024/02/10 08:52:24;;;;;;;;;;;;;;;;;;5028860;28;19921;-86
2024/02/10 08:54:49;;;;;;;;;;;;;;;;;;5029273;28;19909;-87
2024/02/10 08:57:19;;;;;;;;;;;;;;;;;;5034251;28;19923;-86
2024/02/10 08:59:48;;;;;;;;;;;;;;;;;;5028495;28;20280;-86
2024/02/10 09:02:13;;;;;;;;;;;;;;;;;;5023544;28;20350;-88
2024/02/10 09:04:38;;;;;;;;;;;;;;;;;;5026030;28;20380;-87
2024/02/10 09:07:03;;;;;;;;;;;;;;;;;;5031931;28;19939;-88
2024/02/10 09:09:29;;;;;;;;;;;;;;;;;;5034844;28;19924;-84
2024/02/10 09:11:54;;;;;;;;;;;;;;;;;;5030377;28;19963;-85
2024/02/10 09:14:19;;;;;;;;;;;;;;;;;;5024723;28;19918;-87
2024/02/10 09:16:45;;;;;;;;;;;;;;;;;;5028556;28;19931;-84
2024/02/10 09:19:12;;;;;;;;;;;;;;;;;;5028278;28;19963;-89
2024/02/10 09:21:38;;;;;;;;;;;;;;;;;;5029036;28;19916;-87
2024/02/10 09:24:03;;;;;;;;;;;;;;;;;;5029538;28;19968;-88
2024/02/10 09:26:28;;;;;;;;;;;;;;;;;;5029239;28;19918;-88
2024/02/10 09:28:53;;;;;;;;;;;;;;;;;;5028507;28;19917;-88
2024/02/10 09:31:19;;;;;;;;;;;;;;;;;;5027946;28;19908;-89
2024/02/10 09:33:44;;;;;;;;;;;;;;;;;;5030509;28;19983;-89
2024/02/10 09:36:11;;;;;;;;;;;;;;;;;;5030186;28;19913;-90
2024/02/10 09:38:38;;;;;;;;;;;;;;;;;;5032430;28;19909;-89
2024/02/10 09:41:04;;;;;;;;;;;;;;;;;;5027362;28;20051;-90
2024/02/10 09:43:31;;;;;;;;;;;;;;;;;;5008594;28;19919;-89
2024/02/10 09:45:56;;;;;;;;;;;;;;;;;;5028379;28;20322;-89
2024/02/10 09:48:23;;;;;;;;;;;;;;;;;;5029069;28;19920;-87
2024/02/10 09:50:48;;;;;;;;;;;;;;;;;;5025902;28;20329;-90
2024/02/10 09:53:13;;;;;;;;;;;;;;;;;;5025795;28;20396;-91
2024/02/10 09:55:39;;;;;;;;;;;;;;;;;;5030992;28;20440;-88
2024/02/10 09:58:04;;;;;;;;;;;;;;;;;;5027835;28;19917;-89
2024/02/10 10:00:29;;;;;;;;;;;;;;;;;;5007639;28;19913;-89
2024/02/10 10:02:59;;;;;;;;;;;;;;;;;;5026881;28;19983;-89
2024/02/10 10:05:24;;;;;;;;;;;;;;;;;;5028567;28;19922;-89
2024/02/10 10:07:52;;;;;;;;;;;;;;;;;;5028179;28;20348;-89
2024/02/10 10:10:17;;;;;;;;;;;;;;;;;;5025538;28;20695;-88
2024/02/10 10:12:43;;;;;;;;;;;;;;;;;;5030350;28;19919;-89
2024/02/10 10:15:08;;;;;;;;;;;;;;;;;;5029516;28;19913;-82
2024/02/10 10:17:35;;;;;;;;;;;;;;;;;;5031288;28;21208;-82
2024/02/10 10:20:09;;;;;;;;;;;;;;;;;;5030040;28;20070;-82
2024/02/10 10:22:34;;;;;;;;;;;;;;;;;;5028485;28;19917;-82
2024/02/10 10:24:59;;;;;;;;;;;;;;;;;;5028328;28;20007;-83
2024/02/10 10:27:24;;;;;;;;;;;;;;;;;;5031947;28;19913;-83
2024/02/10 10:29:49;;;;;;;;;;;;;;;;;;5031891;28;20424;-82
2024/02/10 10:32:15;;;;;;;;;;;;;;;;;;5010698;28;20483;-84
2024/02/10 10:34:40;;;;;;;;;;;;;;;;;;5029259;28;20400;-83
2024/02/10 10:37:05;;;;;;;;;;;;;;;;;;5028204;28;19924;-82
2024/02/10 10:39:30;;;;;;;;;;;;;;;;;;5029271;28;19913;-83
2024/02/10 10:41:56;;;;;;;;;;;;;;;;;;5027747;28;19917;-83
2024/02/10 10:44:21;;;;;;;;;;;;;;;;;;5029571;28;19913;-83
2024/02/10 10:46:46;;;;;;;;;;;;;;;;;;5026311;28;19948;-83
2024/02/10 10:49:11;;;;;;;;;;;;;;;;;;5027843;28;19916;-82
2024/02/10 10:51:37;;;;;;;;;;;;;;;;;;5031700;28;19962;-82
2024/02/10 10:54:02;;;;;;;;;;;;;;;;;;5033284;28;20381;-82
2024/02/10 10:56:31;;;;;;;;;;;;;;;;;;5025896;28;20400;-83
2024/02/10 10:58:57;;;;;;;;;;;;;;;;;;5014718;28;19909;-83
2024/02/10 11:01:22;;;;;;;;;;;;;;;;;;5032340;28;19924;-83
2024/02/10 11:03:48;;;;;;;;;;;;;;;;;;5030050;28;19916;-88
2024/02/10 11:06:14;;;;;;;;;;;;;;;;;;5031606;28;20515;-88
2024/02/10 11:08:42;;;;;;;;;;;;;;;;;;5033553;28;19954;-86
2024/02/10 11:11:10;;;;;;;;;;;;;;;;;;5026803;28;19940;-82
2024/02/10 11:13:35;;;;;;;;;;;;;;;;;;5041874;28;20387;-83
2024/02/10 11:16:03;;;;;;;;;;;;;;;;;;5032934;28;19943;-82
2024/02/10 11:18:29;;;;;;;;;;;;;;;;;;5033186;28;20391;-83
2024/02/10 11:20:54;;;;;;;;;;;;;;;;;;5033542;28;19987;-82
2024/02/10 11:23:19;;;;;;;;;;;;;;;;;;5030622;28;20354;-82
2024/02/10 11:25:46;;;;;;;;;;;;;;;;;;5033815;28;19913;-82
2024/02/10 11:28:13;;;;;;;;;;;;;;;;;;5030462;28;19913;-82
2024/02/10 11:30:38;;;;;;;;;;;;;;;;;;5029070;28;20288;-82
2024/02/10 11:33:03;;;;;;;;;;;;;;;;;;5031777;28;20383;-82
2024/02/10 11:35:32;;;;;;;;;;;;;;;;;;5031130;28;19956;-82
2024/02/10 11:37:58;;;;;;;;;;;;;;;;;;5032068;28;20010;-83
2024/02/10 11:40:23;;;;;;;;;;;;;;;;;;5031268;28;20266;-82
2024/02/10 11:42:48;;;;;;;;;;;;;;;;;;5030888;28;19938;-82
2024/02/10 11:45:17;;;;;;;;;;;;;;;;;;5006383;28;20361;-82
2024/02/10 11:47:43;;;;;;;;;;;;;;;;;;5024603;28;20529;-82
2024/02/10 11:50:08;;;;;;;;;;;;;;;;;;5013446;28;19917;-83
2024/02/10 11:52:36;;;;;;;;;;;;;;;;;;5024179;28;20264;-82
2024/02/10 11:55:02;;;;;;;;;;;;;;;;;;5028072;28;20353;-82
2024/02/10 11:57:27;;;;;;;;;;;;;;;;;;5029284;28;19913;-83
2024/02/10 11:59:52;;;;;;;;;;;;;;;;;;5040401;28;19927;-84
2024/02/10 12:02:19;;;;;;;;;;;;;;;;;;5052904;28;19909;-84
2024/02/10 12:04:47;;;;;;;;;;;;;;;;;;5045832;28;20360;-80
2024/02/10 12:07:12;;;;;;;;;;;;;;;;;;5038082;28;19943;-81
2024/02/10 12:09:37;;;;;;;;;;;;;;;;;;5046651;28;19917;-82
2024/02/10 12:12:03;;;;;;;;;;;;;;;;;;5037909;28;19912;-83
2024/02/10 12:14:29;;;;;;;;;;;;;;;;;;5031668;28;19940;-83
2024/02/10 12:16:54;;;;;;;;;;;;;;;;;;5030331;28;19920;-83
2024/02/10 12:19:22;;;;;;;;;;;;;;;;;;5025270;28;19913;-83
2024/02/10 12:21:48;;;;;;;;;;;;;;;;;;5020787;28;19914;-83
2024/02/10 12:24:13;;;;;;;;;;;;;;;;;;5024642;28;19924;-83
2024/02/10 12:26:38;;;;;;;;;;;;;;;;;;5028501;28;20367;-83
2024/02/10 12:29:04;;;;;;;;;;;;;;;;;;5029991;28;20445;-83
2024/02/10 12:31:29;;;;;;;;;;;;;;;;;;5028453;28;19909;-83
2024/02/10 12:33:55;;;;;;;;;;;;;;;;;;5027776;28;19924;-82
2024/02/10 12:36:20;;;;;;;;;;;;;;;;;;5026995;28;20009;-83
2024/02/10 12:38:45;;;;;;;;;;;;;;;;;;5026040;28;19913;-83
2024/02/10 12:41:11;;;;;;;;;;;;;;;;;;5028384;28;19936;-83
2024/02/10 12:43:42;;;;;;;;;;;;;;;;;;5027399;28;20485;-83
2024/02/10 12:46:08;;;;;;;;;;;;;;;;;;5026652;28;19913;-85
2024/02/10 12:48:34;;;;;;;;;;;;;;;;;;5019142;28;19913;-81
2024/02/10 12:50:59;;;;;;;;;;;;;;;;;;5023267;28;20292;-83
2024/02/10 12:53:24;;;;;;;;;;;;;;;;;;5025900;28;20285;-83
2024/02/10 12:55:50;;;;;;;;;;;;;;;;;;5029616;28;20356;-82
2024/02/10 12:58:19;;;;;;;;;;;;;;;;;;5026621;28;20401;-84
2024/02/10 13:00:44;;;;;;;;;;;;;;;;;;5028344;28;20451;-84
2024/02/10 13:03:10;;;;;;;;;;;;;;;;;;5025789;28;19960;-83
2024/02/10 13:05:35;;;;;;;;;;;;;;;;;;5020426;28;19920;-83
2024/02/10 13:08:00;;;;;;;;;;;;;;;;;;5026363;28;19912;-83
2024/02/10 13:10:28;;;;;;;;;;;;;;;;;;5028467;28;20281;-85
2024/02/10 13:12:53;;;;;;;;;;;;;;;;;;5027171;28;19956;-83
2024/02/10 13:15:19;;;;;;;;;;;;;;;;;;5027689;28;19955;-84
2024/02/10 13:17:44;;;;;;;;;;;;;;;;;;5026396;28;19917;-84
2024/02/10 13:20:11;;;;;;;;;;;;;;;;;;5026755;28;19909;-84
2024/02/10 13:22:36;;;;;;;;;;;;;;;;;;5029490;28;20431;-82
2024/02/10 13:25:01;;;;;;;;;;;;;;;;;;5029148;28;19920;-82
2024/02/10 13:27:26;;;;;;;;;;;;;;;;;;5026464;28;19913;-83
2024/02/10 13:29:52;;;;;;;;;;;;;;;;;;5028724;28;20355;-84
2024/02/10 13:32:17;;;;;;;;;;;;;;;;;;5008281;28;19912;-82
2024/02/10 13:34:48;;;;;;;;;;;;;;;;;;5026500;28;19912;-84
2024/02/10 14:01:14;;;;;;;;;;;;;;;;;;5039463;28;19913;-90
2024/02/10 14:04:06;;;;;;;;;;;;;;;;;;5036879;28;19913;-91
2024/02/10 14:06:34;;;;;;;;;;;;;;;;;;5039546;28;19924;-91
2024/02/10 14:09:03;;;;;;;;;;;;;;;;;;5033300;28;19960;-90
2024/02/10 14:11:32;;;;;;;;;;;;;;;;;;5029380;28;20007;-90
2024/02/10 14:13:58;;;;;;;;;;;;;;;;;;5036791;28;20130;-90
2024/02/10 14:16:30;;;;;;;;;;;;;;;;;;5032561;28;19913;-90
2024/02/10 14:18:55;;;;;;;;;;;;;;;;;;5034012;28;20183;-91
2024/02/10 14:21:34;;;;;;;;;;;;;;;;;;5033096;28;19936;-90
2024/02/10 14:23:59;;;;;;;;;;;;;;;;;;5030484;28;20248;-91
2024/02/10 14:26:52;;;;;;;;;;;;;;;;;;5033494;28;19917;-90
2024/02/10 14:29:45;;;;;;;;;;;;;;;;;;5026598;28;20437;-90
2024/02/10 14:32:10;;;;;;;;;;;;;;;;;;5029117;28;20380;-90
2024/02/10 14:35:02;;;;;;;;;;;;;;;;;;5038096;28;19909;-90
2024/02/10 14:37:28;;;;;;;;;;;;;;;;;;5031759;28;19920;-87
2024/02/10 14:39:56;;;;;;;;;;;;;;;;;;5034989;28;19909;-92
2024/02/10 14:42:21;;;;;;;;;;;;;;;;;;5038923;28;19908;-87
2024/02/10 14:44:46;;;;;;;;;;;;;;;;;;5037613;28;20243;-92
2024/02/10 14:47:11;;;;;;;;;;;;;;;;;;5042948;28;19913;-91
2024/02/10 14:49:37;;;;;;;;;;;;;;;;;;5035446;28;19909;-90
2024/02/10 14:52:02;;;;;;;;;;;;;;;;;;5035021;28;19945;-91
2024/02/10 14:54:27;;;;;;;;;;;;;;;;;;5033268;28;20397;-90
2024/02/10 14:56:53;;;;;;;;;;;;;;;;;;5031804;28;19996;-83
2024/02/10 14:59:19;;;;;;;;;;;;;;;;;;5031233;28;20676;-82
2024/02/10 15:01:48;;;;;;;;;;;;;;;;;;5021326;28;20024;-82
2024/02/10 15:04:13;;;;;;;;;;;;;;;;;;5035646;28;19909;-83
2024/02/10 15:06:40;;;;;;;;;;;;;;;;;;5031224;28;19967;-81
2024/02/10 15:09:09;;;;;;;;;;;;;;;;;;5031825;28;20008;-82
2024/02/10 15:11:36;;;;;;;;;;;;;;;;;;5032105;28;19928;-82
2024/02/10 15:14:04;;;;;;;;;;;;;;;;;;5032213;28;19916;-82
2024/02/10 15:16:29;;;;;;;;;;;;;;;;;;5013401;28;19987;-82
2024/02/10 15:18:56;;;;;;;;;;;;;;;;;;5029526;28;19913;-82
2024/02/10 15:21:21;;;;;;;;;;;;;;;;;;5030244;28;19955;-82
2024/02/10 15:23:46;;;;;;;;;;;;;;;;;;5014207;28;20357;-83
2024/02/10 15:26:12;;;;;;;;;;;;;;;;;;5020097;28;19925;-84
2024/02/10 15:28:37;;;;;;;;;;;;;;;;;;5032875;28;19958;-83
2024/02/10 15:31:05;;;;;;;;;;;;;;;;;;5033243;28;19932;-83
2024/02/10 15:33:31;;;;;;;;;;;;;;;;;;5025689;28;19917;-83
2024/02/10 15:35:56;;;;;;;;;;;;;;;;;;5030995;28;19917;-83
2024/02/10 15:38:21;;;;;;;;;;;;;;;;;;5013172;28;19928;-83
2024/02/10 15:40:47;;;;;;;;;;;;;;;;;;5032185;28;19909;-83
2024/02/10 15:43:13;;;;;;;;;;;;;;;;;;5031153;28;20294;-83
2024/02/10 15:45:40;;;;;;;;;;;;;;;;;;5027934;28;19920;-83
2024/02/10 15:48:05;;;;;;;;;;;;;;;;;;5036824;28;19917;-83
2024/02/10 15:50:30;;;;;;;;;;;;;;;;;;5032726;28;19920;-83
2024/02/10 15:52:55;;;;;;;;;;;;;;;;;;5028243;28;19996;-83
2024/02/10 15:55:20;;;;;;;;;;;;;;;;;;5030101;28;19909;-83
2024/02/10 15:57:48;;;;;;;;;;;;;;;;;;5014368;28;19917;-84
2024/02/10 16:00:13;;;;;;;;;;;;;;;;;;5029438;28;20366;-83
2024/02/10 16:02:39;;;;;;;;;;;;;;;;;;5032936;28;19967;-83
2024/02/10 16:05:10;;;;;;;;;;;;;;;;;;5036893;28;19983;-83
2024/02/10 16:07:37;;;;;;;;;;;;;;;;;;5025945;28;19909;-83
2024/02/10 16:10:02;;;;;;;;;;;;;;;;;;5025952;28;19967;-83
2024/02/10 16:12:27;;;;;;;;;;;;;;;;;;5030132;28;19909;-83
2024/02/10 16:14:52;;;;;;;;;;;;;;;;;;5029437;28;19905;-83
2024/02/10 16:17:18;;;;;;;;;;;;;;;;;;5031551;28;19916;-84
2024/02/10 16:19:48;;;;;;;;;;;;;;;;;;5028012;28;19949;-83
2024/02/10 16:22:14;;;;;;;;;;;;;;;;;;5025783;28;19909;-83
2024/02/10 16:24:41;;;;;;;;;;;;;;;;;;5009517;28;19963;-83
2024/02/10 16:27:06;;;;;;;;;;;;;;;;;;5007124;28;19973;-86
2024/02/10 16:29:32;;;;;;;;;;;;;;;;;;5011904;28;20072;-91
2024/02/10 16:31:58;;;;;;;;;;;;;;;;;;5011391;28;20027;-91
2024/02/10 16:34:23;;;;;;;;;;;;;;;;;;5012130;28;20008;-91
2024/02/10 16:36:48;;;;;;;;;;;;;;;;;;5011020;28;19909;-92
2024/02/10 16:39:13;;;;;;;;;;;;;;;;;;4992452;28;19921;-91
2024/02/10 16:41:38;;;;;;;;;;;;;;;;;;5011417;28;19918;-90
2024/02/10 16:44:04;;;;;;;;;;;;;;;;;;5009206;28;19924;-91
2024/02/10 16:46:30;;;;;;;;;;;;;;;;;;5026915;28;19917;-91
2024/02/10 16:48:55;;;;;;;;;;;;;;;;;;5013568;28;19910;-91
2024/02/10 16:51:20;;;;;;;;;;;;;;;;;;5013779;28;19909;-91
2024/02/10 16:53:45;;;;;;;;;;;;;;;;;;5013631;28;19917;-91
2024/02/10 16:56:10;;;;;;;;;;;;;;;;;;5012493;28;19992;-92
2024/02/10 16:58:36;;;;;;;;;;;;;;;;;;5008120;28;19920;-86
2024/02/10 17:01:01;;;;;;;;;;;;;;;;;;5008915;28;19937;-90
2024/02/10 17:03:26;;;;;;;;;;;;;;;;;;5017338;28;19959;-92